Time;durP1;ratioP1;P1;durP2;ratioP2;P2;SDS_P1;SDS_P2;PMS_P1;PMS_P2;Temp;Humidity;BMP_temperature;BMP_pressure;BME280_temperature;BME280_humidity;BME280_pressure;Samples;Min_cycle;Max_cycle;Signal;HPM_P1;HPM_P2
2020/12/08 00:00:34;;;;;;;17.83;9.57;;;;;;;2.13;82.70;99869.44;5040663;28;20060;-67
2020/12/08 00:03:00;;;;;;;16.88;9.57;;;;;;;2.15;82.39;99869.44;5041278;28;20503;-67
2020/12/08 00:05:26;;;;;;;18.13;10.73;;;;;;;2.10;82.54;99872.00;5041750;28;20052;-67
2020/12/08 00:07:52;;;;;;;18.88;10.40;;;;;;;2.09;82.75;99870.28;5043158;28;20053;-66
2020/12/08 00:10:19;;;;;;;16.90;10.32;;;;;;;2.12;82.48;99872.88;5041743;28;20048;-66
2020/12/08 00:12:46;;;;;;;21.38;11.05;;;;;;;2.11;82.63;99871.16;5042574;28;20071;-67
2020/12/08 00:15:12;;;;;;;17.85;10.10;;;;;;;2.12;82.66;99867.75;5042497;28;20095;-67
2020/12/08 00:17:38;;;;;;;22.17;11.40;;;;;;;2.03;82.79;99862.59;5041559;28;20053;-68
2020/12/08 00:20:06;;;;;;;23.75;11.88;;;;;;;2.03;83.19;99865.16;5039813;28;20767;-66
2020/12/08 00:22:32;;;;;;;21.77;11.20;;;;;;;1.98;83.34;99856.59;5044567;28;20473;-66
2020/12/08 00:24:59;;;;;;;18.17;10.55;;;;;;;1.92;83.27;99854.03;5043153;28;20041;-66
2020/12/08 00:27:25;;;;;;;17.75;10.35;;;;;;;1.93;83.28;99848.03;5041485;28;20071;-66
2020/12/08 00:29:51;;;;;;;17.48;9.90;;;;;;;1.92;83.17;99846.34;5040954;28;20053;-67
2020/12/08 00:32:17;;;;;;;17.10;9.90;;;;;;;1.89;83.43;99847.19;5042283;28;20049;-67
2020/12/08 00:34:43;;;;;;;18.77;10.05;;;;;;;1.89;83.43;99847.19;5047422;28;20048;-67
2020/12/08 00:37:09;;;;;;;20.35;10.80;;;;;;;1.92;83.37;99846.34;5041512;28;20048;-67
2020/12/08 00:39:35;;;;;;;15.82;10.13;;;;;;;1.95;83.06;99841.19;5040230;28;20048;-67
2020/12/08 00:42:01;;;;;;;18.90;9.77;;;;;;;2.00;83.08;99840.34;5040902;28;20068;-66
2020/12/08 00:44:27;;;;;;;20.60;10.07;;;;;;;2.01;82.54;99842.06;5043853;28;20044;-67
2020/12/08 00:46:54;;;;;;;20.75;10.98;;;;;;;2.01;82.08;99847.19;5043927;28;20531;-66
2020/12/08 00:49:20;;;;;;;17.02;9.60;;;;;;;1.95;82.23;99846.31;5038128;28;20052;-66
2020/12/08 00:51:45;;;;;;;19.15;9.45;;;;;;;1.98;81.94;99846.31;5041042;28;20053;-67
2020/12/08 00:54:11;;;;;;;16.77;9.52;;;;;;;2.01;81.63;99843.78;5041203;28;20060;-67
2020/12/08 00:56:39;;;;;;;20.02;10.15;;;;;;;2.01;81.39;99854.03;5040415;28;20049;-66
2020/12/08 00:59:06;;;;;;;18.65;9.90;;;;;;;1.94;81.62;99848.03;5040777;28;20045;-66
2020/12/08 01:01:32;;;;;;;18.50;10.35;;;;;;;1.85;81.34;99853.16;5041711;28;20045;-67
2020/12/08 01:03:58;;;;;;;17.17;9.75;;;;;;;1.83;81.46;99849.72;5038102;28;20052;-67
2020/12/08 01:06:24;;;;;;;19.98;10.02;;;;;;;1.79;81.59;99856.56;5038702;28;20049;-66
2020/12/08 01:08:49;;;;;;;16.42;9.60;;;;;;;1.81;81.83;99857.41;5037892;28;20049;-65
2020/12/08 01:11:16;;;;;;;15.85;10.23;;;;;;;1.83;81.66;99853.16;5040848;28;20041;-66
2020/12/08 01:13:42;;;;;;;16.23;9.02;;;;;;;1.78;82.03;99857.41;5038082;28;20057;-67
2020/12/08 01:16:08;;;;;;;17.38;10.02;;;;;;;1.72;82.24;99859.97;5036367;28;20057;-67
2020/12/08 01:18:34;;;;;;;17.17;9.57;;;;;;;1.75;82.08;99861.66;5035849;28;20578;-67
2020/12/08 01:21:00;;;;;;;18.17;10.15;;;;;;;1.66;82.40;99862.50;5036431;28;20052;-67
2020/12/08 01:23:26;;;;;;;19.05;10.55;;;;;;;1.68;82.28;99861.66;5037992;28;20049;-66
2020/12/08 01:25:52;;;;;;;17.95;9.88;;;;;;;1.67;82.25;99857.38;5037787;28;20049;-67
2020/12/08 01:28:18;;;;;;;16.00;8.75;;;;;;;1.70;81.99;99866.78;5037233;28;20046;-67
2020/12/08 01:30:45;;;;;;;18.85;9.68;;;;;;;1.66;81.72;99860.81;5037145;28;20094;-67
2020/12/08 01:33:11;;;;;;;14.63;8.88;;;;;;;1.63;81.86;99865.06;5040326;28;20045;-67
2020/12/08 01:35:37;;;;;;;17.60;10.07;;;;;;;1.58;82.05;99869.31;5040190;28;20056;-67
2020/12/08 01:38:04;;;;;;;16.58;9.55;;;;;;;1.61;82.01;99861.63;5040552;28;20073;-66
2020/12/08 01:40:30;;;;;;;23.73;10.52;;;;;;;1.53;82.31;99867.59;5040191;28;20171;-67
2020/12/08 01:42:55;;;;;;;15.15;9.20;;;;;;;1.58;82.06;99859.06;5045434;28;20055;-67
2020/12/08 01:45:21;;;;;;;17.77;10.05;;;;;;;1.61;81.86;99870.16;5039322;28;20056;-66
2020/12/08 01:47:48;;;;;;;18.27;10.27;;;;;;;1.50;82.18;99880.41;5044556;28;20049;-66
2020/12/08 01:50:14;;;;;;;16.83;9.48;;;;;;;1.37;82.13;99873.50;5041023;28;20507;-66
2020/12/08 01:52:41;;;;;;;16.63;9.82;;;;;;;1.28;82.13;99878.56;5041140;28;22271;-65
2020/12/08 01:55:07;;;;;;;17.55;10.05;;;;;;;1.23;82.04;99871.75;5041139;28;20068;-67
2020/12/08 01:57:33;;;;;;;17.02;10.68;;;;;;;1.28;82.48;99873.44;5040658;28;20144;-67
2020/12/08 01:59:59;;;;;;;15.82;9.35;;;;;;;1.36;82.05;99879.47;5042791;28;20483;-67
2020/12/08 02:02:25;;;;;;;20.30;9.75;;;;;;;1.32;82.00;99872.63;5041408;28;20068;-67
2020/12/08 02:04:51;;;;;;;17.75;10.13;;;;;;;1.37;81.84;99873.50;5039848;28;20049;-67
2020/12/08 02:07:18;;;;;;;18.00;9.38;;;;;;;1.42;81.81;99869.25;5040788;28;20049;-67
2020/12/08 02:09:44;;;;;;;17.45;9.98;;;;;;;1.47;82.05;99874.41;5041225;28;20057;-66
2020/12/08 02:12:09;;;;;;;18.92;9.93;;;;;;;1.48;82.10;99868.44;5041102;28;20431;-68
2020/12/08 02:14:35;;;;;;;21.35;10.65;;;;;;;1.44;82.13;99865.00;5045119;28;20052;-67
2020/12/08 02:17:01;;;;;;;18.85;10.43;;;;;;;1.46;82.04;99872.69;5042927;28;20047;-66
2020/12/08 02:19:30;;;;;;;18.38;10.93;;;;;;;1.43;82.31;99872.66;5042906;28;20056;-67
2020/12/08 02:21:57;;;;;;;17.88;9.70;;;;;;;1.39;81.94;99871.81;5043200;28;20045;-68
2020/12/08 02:24:23;;;;;;;20.13;10.07;;;;;;;1.40;81.86;99873.50;5048244;28;20075;-67
2020/12/08 02:26:48;;;;;;;21.45;9.85;;;;;;;1.40;81.86;99865.81;5043723;28;20187;-66
2020/12/08 02:29:14;;;;;;;19.70;11.90;;;;;;;1.39;81.61;99869.25;5043775;28;20063;-67
2020/12/08 02:31:40;;;;;;;21.88;10.73;;;;;;;1.38;82.05;99867.53;5045389;28;20873;-67
2020/12/08 02:34:07;;;;;;;17.00;9.98;;;;;;;1.40;82.11;99868.41;5044059;28;20449;-67
2020/12/08 02:36:33;;;;;;;19.73;11.88;;;;;;;1.44;82.33;99872.69;5044387;28;20520;-66
2020/12/08 02:39:00;;;;;;;19.10;11.13;;;;;;;1.44;82.51;99870.13;5043272;28;20045;-66
2020/12/08 02:41:26;;;;;;;23.00;11.32;;;;;;;1.46;82.54;99870.97;5043951;28;20045;-67
2020/12/08 02:43:53;;;;;;;18.70;10.45;;;;;;;1.44;82.85;99876.94;5044699;28;20045;-67
2020/12/08 02:46:19;;;;;;;21.38;11.95;;;;;;;1.57;82.66;99875.28;5043570;28;20047;-66
2020/12/08 02:51:25;;;;;;;20.05;11.80;;;;;;;1.39;83.28;99869.25;5017006;28;20057;-72
2020/12/08 02:53:51;;;;;;;21.10;12.63;;;;;;;1.45;83.39;99876.94;5021761;28;20049;-71
2020/12/08 02:56:23;;;;;;;22.70;12.85;;;;;;;1.48;83.37;99871.84;5023372;28;20552;-73
2020/12/08 02:58:49;;;;;;;23.98;11.25;;;;;;;1.58;83.08;99877.00;5023948;28;20064;-71
2020/12/08 03:01:19;;;;;;;22.05;12.13;;;;;;;1.61;83.07;99869.31;5007263;28;20054;-72
2020/12/08 03:03:45;;;;;;;21.17;12.65;;;;;;;1.68;83.14;99868.47;5004532;28;20050;-71
2020/12/08 03:06:10;;;;;;;22.13;12.43;;;;;;;1.70;82.92;99877.88;5003002;28;20180;-71
2020/12/08 03:08:36;;;;;;;24.95;13.27;;;;;;;1.65;83.11;99878.72;5004299;28;20101;-71
2020/12/08 03:11:02;;;;;;;20.50;12.80;;;;;;;1.70;83.06;99877.88;5003540;28;20050;-72
2020/12/08 03:13:29;;;;;;;22.38;12.13;;;;;;;1.67;82.86;99877.91;5005009;28;20146;-71
2020/12/08 03:15:56;;;;;;;23.45;12.48;;;;;;;1.68;82.87;99869.34;5001390;28;20116;-71
2020/12/08 03:18:22;;;;;;;21.80;12.23;;;;;;;1.67;83.13;99877.91;5003776;28;20256;-71
2020/12/08 03:20:48;;;;;;;24.00;12.90;;;;;;;1.67;83.43;99874.47;5002956;28;20531;-74
2020/12/08 03:23:13;;;;;;;21.15;12.30;;;;;;;1.72;83.42;99875.34;5001725;28;20054;-72
2020/12/08 03:25:39;;;;;;;22.80;13.05;;;;;;;1.69;83.45;99865.06;5004885;28;20041;-72
2020/12/08 03:28:05;;;;;;;23.85;13.77;;;;;;;1.69;83.62;99870.19;5003704;28;20042;-74
2020/12/08 03:30:34;;;;;;;23.52;13.68;;;;;;;1.71;84.42;99865.94;5002978;28;20503;-72
2020/12/08 03:33:00;;;;;;;24.90;13.75;;;;;;;1.74;84.43;99867.66;5003592;28;20050;-72
2020/12/08 03:35:25;;;;;;;25.50;14.18;;;;;;;1.77;84.21;99860.81;5002982;28;20125;-73
2020/12/08 03:37:51;;;;;;;23.50;13.30;;;;;;;1.77;84.35;99876.19;5003423;28;20495;-73
2020/12/08 03:40:17;;;;;;;24.40;14.68;;;;;;;1.81;84.21;99875.38;5002313;28;20443;-72
2020/12/08 03:42:43;;;;;;;22.92;13.93;;;;;;;1.81;84.11;99869.38;5004675;28;20140;-70
2020/12/08 03:45:09;;;;;;;27.70;14.05;;;;;;;1.82;83.86;99866.81;5001474;28;20048;-71
2020/12/08 03:47:36;;;;;;;23.38;14.15;;;;;;;1.77;84.13;99857.41;5002418;28;20046;-72
2020/12/08 03:50:02;;;;;;;23.73;13.95;;;;;;;1.80;84.18;99860.84;5003703;28;20053;-75
2020/12/08 03:52:28;;;;;;;23.58;14.18;;;;;;;1.81;84.34;99857.41;5006157;28;20046;-73
2020/12/08 03:54:54;;;;;;;31.73;15.48;;;;;;;1.85;84.30;99861.69;5003290;28;20057;-71
2020/12/08 03:57:20;;;;;;;24.08;14.55;;;;;;;1.89;83.92;99866.84;5002775;28;20053;-72
2020/12/08 03:59:46;;;;;;;23.95;14.55;;;;;;;1.90;83.95;99859.13;5003409;28;20045;-71
2020/12/08 04:02:15;;;;;;;25.17;14.05;;;;;;;1.90;84.01;99853.16;5004946;28;20061;-72
2020/12/08 04:04:42;;;;;;;22.42;13.20;;;;;;;1.90;84.33;99858.28;5002759;28;20050;-72
2020/12/08 04:07:07;;;;;;;27.17;14.82;;;;;;;1.91;83.94;99854.88;5003386;28;20427;-72
2020/12/08 04:09:33;;;;;;;21.75;13.15;;;;;;;1.92;83.98;99859.16;5000866;28;20050;-73
2020/12/08 04:11:59;;;;;;;25.73;14.57;;;;;;;1.88;84.00;99858.28;5005637;28;20108;-71
2020/12/08 04:14:25;;;;;;;23.08;13.73;;;;;;;1.87;83.73;99864.28;5001036;28;20627;-72
2020/12/08 04:16:51;;;;;;;27.90;14.65;;;;;;;1.86;83.81;99871.09;5003110;28;20070;-71
2020/12/08 04:19:18;;;;;;;27.50;14.93;;;;;;;1.86;83.97;99868.53;5003347;28;20530;-72
2020/12/08 04:21:45;;;;;;;24.92;15.02;;;;;;;1.84;83.49;99866.81;5002396;28;20049;-72
2020/12/08 04:24:11;;;;;;;27.38;15.93;;;;;;;1.78;84.32;99869.38;5002284;28;20053;-73
2020/12/08 04:26:37;;;;;;;26.45;15.00;;;;;;;1.75;84.11;99870.22;5003317;28;20042;-72
2020/12/08 04:29:03;;;;;;;26.45;15.70;;;;;;;1.74;83.94;99868.53;5010382;28;20565;-72
2020/12/08 04:31:29;;;;;;;28.40;16.52;;;;;;;1.75;84.32;99875.34;4996444;28;20069;-74
2020/12/08 04:33:56;;;;;;;25.25;15.23;;;;;;;1.77;84.34;99871.06;5002183;28;20049;-71
2020/12/08 04:36:23;;;;;;;25.48;15.07;;;;;;;1.80;84.39;99870.22;5002158;28;20053;-71
2020/12/08 04:38:51;;;;;;;25.17;15.13;;;;;;;1.84;84.55;99869.38;5001673;28;20096;-72
2020/12/08 04:41:21;;;;;;;25.50;14.73;;;;;;;1.89;84.34;99864.28;5002151;28;20046;-72
2020/12/08 04:43:48;;;;;;;29.20;16.35;;;;;;;1.91;84.05;99867.69;5002887;28;20057;-72
2020/12/08 04:46:16;;;;;;;24.17;14.55;;;;;;;1.92;84.06;99877.94;4999977;28;20539;-74
2020/12/08 04:48:42;;;;;;;24.95;14.38;;;;;;;1.93;84.01;99878.81;5003182;28;20525;-72
2020/12/08 04:51:08;;;;;;;24.30;15.48;;;;;;;1.94;83.95;99876.25;4999641;28;20077;-72
2020/12/08 04:53:34;;;;;;;23.80;15.05;;;;;;;1.93;84.09;99878.81;5001891;28;20057;-72
2020/12/08 04:56:01;;;;;;;24.48;15.10;;;;;;;1.94;84.14;99876.25;5005268;28;20143;-72
2020/12/08 04:58:28;;;;;;;23.80;14.68;;;;;;;1.91;84.44;99881.38;5002086;28;20058;-70
2020/12/08 05:00:54;;;;;;;27.73;16.80;;;;;;;1.88;84.37;99880.50;5000818;28;20061;-72
2020/12/08 05:03:24;;;;;;;25.73;15.00;;;;;;;1.82;84.70;99877.09;4998564;28;20853;-74
2020/12/08 05:05:50;;;;;;;26.38;15.98;;;;;;;1.91;84.63;99877.97;4999410;28;20042;-72
2020/12/08 05:08:17;;;;;;;26.25;16.17;;;;;;;1.98;84.26;99877.09;5002437;28;20045;-73
2020/12/08 05:10:44;;;;;;;24.98;16.02;;;;;;;2.04;83.98;99882.28;5000181;28;20082;-75
2020/12/08 05:13:17;;;;;;;29.48;17.42;;;;;;;2.04;84.06;99882.28;5002360;28;20165;-72
2020/12/08 05:15:43;;;;;;;30.00;16.05;;;;;;;2.06;84.09;99877.13;4999568;28;20046;-72
2020/12/08 05:18:11;;;;;;;26.20;16.00;;;;;;;2.06;84.07;99877.97;4999921;28;20240;-72
2020/12/08 05:20:37;;;;;;;31.25;16.65;;;;;;;2.07;84.06;99883.97;5000780;28;20061;-72
2020/12/08 05:23:03;;;;;;;28.98;16.30;;;;;;;2.14;84.07;99883.13;5000529;28;20046;-72
2020/12/08 05:25:30;;;;;;;27.83;16.90;;;;;;;2.10;84.11;99879.69;5005835;28;20068;-72
2020/12/08 05:27:58;;;;;;;27.75;16.92;;;;;;;2.08;83.93;99878.84;5006550;28;20046;-71
2020/12/08 05:30:26;;;;;;;28.17;16.00;;;;;;;2.09;83.64;99882.28;5002300;28;20062;-74
2020/12/08 05:32:53;;;;;;;28.33;17.45;;;;;;;2.07;84.24;99883.97;5011123;28;20049;-72
2020/12/08 05:35:21;;;;;;;28.77;15.93;;;;;;;2.13;83.83;99892.53;5008614;28;20053;-72
2020/12/08 05:37:49;;;;;;;29.42;17.38;;;;;;;2.13;83.79;99889.09;5006475;28;20057;-72
2020/12/08 05:40:16;;;;;;;29.55;15.90;;;;;;;2.08;84.18;99889.09;5008478;28;20053;-72
2020/12/08 05:42:43;;;;;;;29.55;16.50;;;;;;;2.08;84.25;99890.81;5009305;28;20045;-72
2020/12/08 05:45:11;;;;;;;29.85;16.90;;;;;;;2.15;83.90;99895.09;5006220;28;20049;-72
2020/12/08 05:47:47;;;;;;;28.45;15.80;;;;;;;2.18;84.23;99902.81;5010836;28;20045;-72
2020/12/08 05:50:14;;;;;;;29.27;16.60;;;;;;;2.23;83.54;99900.25;5012240;28;20061;-73
2020/12/08 05:52:45;;;;;;;26.33;16.58;;;;;;;2.22;83.62;99901.94;5009706;28;20490;-73
2020/12/08 05:55:14;;;;;;;27.75;16.45;;;;;;;2.17;83.66;99909.63;5013201;28;20507;-69
2020/12/08 05:57:41;;;;;;;31.15;16.98;;;;;;;2.14;83.38;99908.78;5012379;28;20065;-71
2020/12/08 06:00:19;;;;;;;29.00;15.90;;;;;;;2.13;84.11;99910.50;5006587;28;20046;-72
2020/12/08 06:02:45;;;;;;;28.17;16.73;;;;;;;2.15;84.08;99903.63;5000182;28;20050;-72
2020/12/08 06:05:11;;;;;;;33.17;16.08;;;;;;;2.17;84.10;99909.63;5013557;28;20045;-70
2020/12/08 06:07:37;;;;;;;30.20;17.00;;;;;;;2.18;83.53;99908.78;5013394;28;20100;-72
2020/12/08 06:10:09;;;;;;;28.65;16.95;;;;;;;2.15;84.34;99907.94;5013195;28;20507;-72
2020/12/08 06:12:38;;;;;;;31.60;17.67;;;;;;;2.14;84.09;99909.66;5014321;28;20050;-73
2020/12/08 06:15:21;;;;;;;29.45;17.25;;;;;;;2.15;83.99;99911.34;5006938;28;20473;-72
2020/12/08 06:17:49;;;;;;;27.90;16.17;;;;;;;2.13;84.27;99909.63;4999286;28;22302;-73
2020/12/08 06:20:15;;;;;;;29.52;16.70;;;;;;;2.19;84.19;99917.34;5012812;28;20541;-72
2020/12/08 06:22:41;;;;;;;26.95;15.90;;;;;;;2.21;84.47;99919.91;5013084;28;20137;-72
2020/12/08 06:25:07;;;;;;;27.70;16.45;;;;;;;2.20;84.12;99915.63;5004910;28;20423;-72
2020/12/08 06:27:33;;;;;;;29.15;18.15;;;;;;;2.20;83.96;99923.31;5012434;28;20081;-71
2020/12/08 06:29:59;;;;;;;31.60;16.40;;;;;;;2.20;84.15;99925.91;5009081;28;20499;-69
2020/12/08 06:32:27;;;;;;;32.75;16.52;;;;;;;2.26;83.93;99929.34;5011589;28;20419;-72
2020/12/08 06:35:09;;;;;;;28.67;16.23;;;;;;;2.21;84.00;99937.88;5011743;28;20069;-73
2020/12/08 06:37:35;;;;;;;27.70;15.68;;;;;;;2.24;84.45;99937.88;5012922;28;20080;-73
2020/12/08 06:40:13;;;;;;;31.48;16.55;;;;;;;2.23;84.48;99938.75;5007513;28;20050;-71
2020/12/08 06:42:39;;;;;;;26.00;16.08;;;;;;;2.23;84.06;99929.31;5012755;28;20053;-73
2020/12/08 06:45:16;;;;;;;31.70;16.13;;;;;;;2.24;84.35;99935.31;5013744;28;20045;-73
2020/12/08 06:47:44;;;;;;;27.50;16.08;;;;;;;2.27;84.41;99927.59;5010767;28;20049;-72
2020/12/08 06:50:28;;;;;;;29.92;16.77;;;;;;;2.33;83.96;99936.19;5009373;28;20216;-72
2020/12/08 06:52:56;;;;;;;30.48;17.63;;;;;;;2.32;83.89;99937.03;5004985;28;20518;-73
2020/12/08 06:55:22;;;;;;;33.70;16.98;;;;;;;2.36;83.89;99935.31;5001593;28;20050;-73
2020/12/08 06:57:48;;;;;;;30.58;18.20;;;;;;;2.37;84.10;99937.03;5011045;28;20057;-74
2020/12/08 07:00:14;;;;;;;32.55;17.50;;;;;;;2.33;83.77;99935.34;5004356;28;20054;-71
2020/12/08 07:02:49;;;;;;;32.75;18.38;;;;;;;2.23;84.20;99934.44;5012118;28;20057;-73
2020/12/08 07:05:20;;;;;;;32.72;17.70;;;;;;;2.22;84.42;99935.28;5012279;28;20514;-72
2020/12/08 07:07:47;;;;;;;33.83;17.25;;;;;;;2.30;84.33;99941.28;5009600;28;20049;-72
2020/12/08 07:10:13;;;;;;;31.52;16.30;;;;;;;2.31;84.16;99942.16;4992816;28;20058;-73
2020/12/08 07:12:41;;;;;;;30.88;17.17;;;;;;;2.31;84.27;99942.16;4992652;28;20504;-71
2020/12/08 07:15:07;;;;;;;32.00;17.83;;;;;;;2.27;84.36;99956.72;4997278;28;20499;-71
2020/12/08 07:17:33;;;;;;;33.05;18.98;;;;;;;2.25;84.87;99957.53;5010850;28;20056;-71
2020/12/08 07:20:04;;;;;;;31.70;17.48;;;;;;;2.25;84.49;99953.28;5011299;28;20077;-72
2020/12/08 07:22:40;;;;;;;38.58;19.38;;;;;;;2.26;85.07;99957.56;5012640;28;20098;-73
2020/12/08 07:25:07;;;;;;;36.95;18.67;;;;;;;2.31;84.97;99962.69;4999943;28;20073;-73
2020/12/08 07:27:33;;;;;;;32.15;18.55;;;;;;;2.42;84.30;99966.16;4992386;28;20057;-72
2020/12/08 07:29:59;;;;;;;34.10;19.77;;;;;;;2.35;84.18;99966.13;4995262;28;20053;-70
2020/12/08 07:32:28;;;;;;;37.30;18.75;;;;;;;2.33;84.26;99968.69;4992760;28;20058;-74
2020/12/08 07:34:54;;;;;;;36.33;18.90;;;;;;;2.22;84.75;99972.94;5011537;28;20132;-72
2020/12/08 07:37:19;;;;;;;36.28;19.45;;;;;;;2.28;85.01;99972.94;5008356;28;20054;-72
2020/12/08 07:39:45;;;;;;;39.25;19.63;;;;;;;2.29;84.65;99969.53;5010112;28;20581;-74
2020/12/08 07:42:12;;;;;;;39.40;18.30;;;;;;;2.30;85.04;99977.22;5011897;28;20602;-71
2020/12/08 07:44:38;;;;;;;36.60;19.45;;;;;;;2.28;85.02;99976.38;5008240;28;20054;-73
2020/12/08 07:47:11;;;;;;;32.97;19.23;;;;;;;2.35;84.92;99978.94;4992107;28;20435;-73
2020/12/08 07:49:39;;;;;;;36.28;18.45;;;;;;;2.42;84.77;99980.66;4993239;28;20043;-71
2020/12/08 07:52:05;;;;;;;32.60;17.83;;;;;;;2.52;84.27;99984.13;5011846;28;20480;-72
2020/12/08 07:54:31;;;;;;;30.48;16.83;;;;;;;2.54;84.35;99990.13;5008697;28;20049;-72
2020/12/08 07:56:57;;;;;;;35.17;18.02;;;;;;;2.58;84.30;99981.56;5011555;28;20054;-72
2020/12/08 07:59:24;;;;;;;32.95;17.73;;;;;;;2.66;83.83;99989.28;5009392;28;20131;-73
2020/12/08 08:01:50;;;;;;;29.15;15.95;;;;;;;2.73;83.83;99980.72;5008062;28;20522;-73
2020/12/08 08:04:16;;;;;;;32.78;18.20;;;;;;;2.76;83.90;99980.72;5005278;28;20042;-71
2020/12/08 08:06:44;;;;;;;31.58;18.02;;;;;;;2.79;83.78;99994.41;5011403;28;20050;-71
2020/12/08 08:09:10;;;;;;;36.58;18.58;;;;;;;2.80;83.86;99983.28;5007928;28;20271;-73
2020/12/08 08:11:36;;;;;;;33.92;17.40;;;;;;;2.83;83.86;99989.28;5002774;28;20428;-73
2020/12/08 08:14:03;;;;;;;30.63;16.88;;;;;;;2.87;83.37;99985.84;4991871;28;20050;-73
2020/12/08 08:16:30;;;;;;;31.15;16.52;;;;;;;2.92;83.13;99994.44;4992557;28;20058;-73
2020/12/08 08:18:56;;;;;;;27.63;16.70;;;;;;;2.96;83.14;99993.56;5004851;28;20451;-73
2020/12/08 08:21:22;;;;;;;26.80;15.95;;;;;;;2.99;82.92;99991.00;5011306;28;20054;-74
2020/12/08 08:23:49;;;;;;;29.90;17.20;;;;;;;3.02;83.13;99991.00;5007123;28;20041;-75
2020/12/08 08:26:15;;;;;;;33.22;17.55;;;;;;;2.97;82.71;99997.00;5030197;28;20049;-72
2020/12/08 08:28:41;;;;;;;32.28;18.13;;;;;;;2.98;83.21;99999.56;5023500;28;20503;-73
2020/12/08 08:31:07;;;;;;;33.45;17.55;;;;;;;3.00;83.20;100000.41;5008598;28;20137;-72
2020/12/08 08:33:34;;;;;;;27.45;16.90;;;;;;;3.02;82.58;100006.41;5011352;28;20057;-72
2020/12/08 08:36:00;;;;;;;28.80;17.33;;;;;;;3.04;82.37;99997.00;5009966;28;20563;-72
2020/12/08 08:38:26;;;;;;;29.13;16.67;;;;;;;3.14;82.68;99994.44;5009249;28;20052;-72
2020/12/08 08:40:53;;;;;;;33.55;16.20;;;;;;;3.13;82.09;100003.00;5009951;28;20048;-73
2020/12/08 08:43:19;;;;;;;27.05;15.80;;;;;;;3.13;82.44;99995.28;5009172;28;20081;-71
2020/12/08 08:45:45;;;;;;;37.85;16.48;;;;;;;3.14;82.06;99997.00;5007806;28;20054;-71
2020/12/08 08:48:11;;;;;;;37.20;17.58;;;;;;;3.16;82.12;99995.25;5010370;28;20062;-72
2020/12/08 08:50:38;;;;;;;26.42;15.95;;;;;;;3.20;82.02;100005.53;5037474;22;20789;-67
2020/12/08 08:53:03;;;;;;;32.80;17.65;;;;;;;3.26;81.88;100000.41;5043111;28;20056;-68
2020/12/08 08:55:29;;;;;;;25.48;16.13;;;;;;;3.28;81.63;100005.53;5060581;28;20059;-67
2020/12/08 08:57:55;;;;;;;29.25;16.42;;;;;;;3.28;82.15;100005.53;5067141;28;20479;-67
2020/12/08 09:00:21;;;;;;;25.73;15.52;;;;;;;3.30;81.55;100002.94;5060041;28;20098;-66
2020/12/08 09:02:47;;;;;;;28.90;17.48;;;;;;;3.31;81.53;99996.97;5047381;28;20462;-68
2020/12/08 09:05:14;;;;;;;21.77;13.38;;;;;;;3.38;81.08;100007.22;5047092;28;20064;-68
2020/12/08 09:07:41;;;;;;;20.60;12.35;;;;;;;3.42;80.80;100014.09;5049857;28;20475;-66
2020/12/08 09:10:07;;;;;;;19.73;11.88;;;;;;;3.51;79.29;100014.94;5049414;28;20045;-67
2020/12/08 09:12:33;;;;;;;19.88;11.52;;;;;;;3.59;79.26;100013.19;5046900;28;20045;-67
2020/12/08 09:15:01;;;;;;;21.52;11.52;;;;;;;3.61;78.99;100015.75;5049231;28;20127;-67
2020/12/08 09:17:27;;;;;;;18.38;11.93;;;;;;;3.65;79.05;100020.03;5045638;28;20052;-67
2020/12/08 09:19:53;;;;;;;20.52;11.27;;;;;;;3.76;77.88;100014.84;5044540;28;20048;-66
2020/12/08 09:22:19;;;;;;;20.10;12.75;;;;;;;3.69;78.62;100016.63;5052374;28;20514;-66
2020/12/08 09:24:46;;;;;;;21.65;12.73;;;;;;;3.76;78.67;100022.56;5053101;28;20072;-67
2020/12/08 09:27:13;;;;;;;18.15;11.80;;;;;;;3.83;77.75;100020.00;5053027;28;20053;-67
2020/12/08 09:29:39;;;;;;;18.60;11.45;;;;;;;3.85;77.43;100030.25;5049138;28;20056;-67
2020/12/08 09:32:05;;;;;;;16.45;10.82;;;;;;;3.82;77.96;100025.16;5050360;28;20477;-64
2020/12/08 09:34:31;;;;;;;17.40;10.90;;;;;;;3.86;78.19;100027.72;5050444;28;20041;-67
2020/12/08 09:36:57;;;;;;;16.15;11.38;;;;;;;3.84;78.28;100036.31;5048048;28;20049;-67
2020/12/08 09:39:24;;;;;;;18.33;11.25;;;;;;;3.86;77.90;100032.84;5052585;28;20053;-67
2020/12/08 09:41:51;;;;;;;18.00;11.20;;;;;;;3.95;77.91;100034.53;5049598;28;20494;-66
2020/12/08 09:44:17;;;;;;;16.58;11.25;;;;;;;4.00;78.58;100032.81;5051177;28;20053;-67
2020/12/08 09:46:44;;;;;;;18.45;11.15;;;;;;;4.07;78.10;100035.34;5051729;28;20049;-67
2020/12/08 09:49:11;;;;;;;20.70;11.38;;;;;;;4.13;78.05;100030.19;5052401;28;20114;-68
2020/12/08 09:51:38;;;;;;;19.13;11.30;;;;;;;4.10;78.08;100031.03;5052295;28;20049;-66
2020/12/08 09:54:04;;;;;;;14.80;9.95;;;;;;;4.12;78.42;100036.19;5052761;28;20150;-67
2020/12/08 09:56:30;;;;;;;18.77;11.25;;;;;;;4.16;77.59;100041.31;5053460;28;20052;-67
2020/12/08 09:58:57;;;;;;;18.73;10.48;;;;;;;4.23;77.61;100041.28;5051694;28;20049;-67
2020/12/08 10:01:26;;;;;;;19.48;12.05;;;;;;;4.21;77.24;100036.16;5052671;28;20045;-63
2020/12/08 10:03:52;;;;;;;19.80;11.63;;;;;;;4.20;77.05;100034.44;5052792;28;20064;-66
2020/12/08 10:06:18;;;;;;;18.63;11.82;;;;;;;4.26;76.54;100033.56;5051074;28;20619;-66
2020/12/08 10:08:44;;;;;;;19.02;12.50;;;;;;;4.22;77.53;100037.88;5049399;28;20057;-66
2020/12/08 10:11:11;;;;;;;17.92;10.88;;;;;;;4.25;76.86;100037.00;5051578;28;20057;-67
2020/12/08 10:13:37;;;;;;;19.15;10.93;;;;;;;4.30;75.99;100036.09;5044060;28;20072;-67
2020/12/08 10:16:04;;;;;;;18.00;10.80;;;;;;;4.22;75.38;100042.13;5052017;28;20131;-67
2020/12/08 10:18:30;;;;;;;17.85;11.27;;;;;;;4.10;76.21;100035.34;5050309;28;20426;-67
2020/12/08 10:20:56;;;;;;;17.20;11.38;;;;;;;4.08;77.72;100030.22;5045647;28;20053;-67
2020/12/08 10:23:21;;;;;;;16.50;10.40;;;;;;;4.17;75.32;100032.75;5040058;28;20049;-67
2020/12/08 10:25:47;;;;;;;15.02;9.90;;;;;;;4.16;76.10;100033.59;5053421;28;20071;-67
2020/12/08 10:28:13;;;;;;;15.07;10.35;;;;;;;4.07;76.18;100031.06;5052671;28;20079;-68
2020/12/08 10:30:39;;;;;;;15.40;9.93;;;;;;;4.04;76.28;100026.75;5053244;28;20068;-67
2020/12/08 10:33:06;;;;;;;16.90;9.85;;;;;;;4.10;74.63;100025.03;5035396;28;20053;-66
2020/12/08 10:35:32;;;;;;;16.30;10.43;;;;;;;4.01;74.87;100024.22;5044446;28;20049;-67
2020/12/08 10:37:58;;;;;;;14.27;9.07;;;;;;;4.03;75.55;100027.66;5052294;28;20095;-67
2020/12/08 10:40:24;;;;;;;16.70;9.20;;;;;;;4.04;74.32;100025.91;5052930;28;20049;-66
2020/12/08 10:42:50;;;;;;;13.73;9.15;;;;;;;4.13;74.31;100027.63;5052950;28;20082;-67
2020/12/08 10:45:15;;;;;;;14.80;9.20;;;;;;;4.12;74.74;100023.31;5047287;28;20084;-67
2020/12/08 10:47:41;;;;;;;14.82;8.80;;;;;;;4.25;73.69;100021.53;5053725;28;20048;-66
2020/12/08 10:50:08;;;;;;;13.98;8.00;;;;;;;4.25;73.97;100017.25;5052775;28;20052;-67
2020/12/08 10:52:34;;;;;;;14.38;8.55;;;;;;;4.29;73.89;100018.09;5053368;28;20075;-67
2020/12/08 10:55:00;;;;;;;14.52;8.60;;;;;;;4.22;73.31;100018.97;5053587;28;20515;-67
2020/12/08 10:57:26;;;;;;;11.15;7.95;;;;;;;4.17;73.80;100012.16;5049797;28;20063;-67
2020/12/08 10:59:52;;;;;;;13.00;8.27;;;;;;;4.22;73.05;100012.13;5053588;28;20072;-66
2020/12/08 11:02:18;;;;;;;13.85;7.97;;;;;;;4.16;72.95;100022.44;5050840;28;20045;-68
2020/12/08 11:04:44;;;;;;;15.27;9.05;;;;;;;4.22;76.64;100021.53;5054802;28;20785;-67
2020/12/08 11:07:11;;;;;;;12.88;7.75;;;;;;;4.25;75.52;100019.81;5056720;28;20502;-67
2020/12/08 11:09:37;;;;;;;11.98;8.02;;;;;;;4.27;73.92;100023.25;5053262;28;20053;-66
2020/12/08 11:12:03;;;;;;;12.07;7.47;;;;;;;4.31;71.63;100017.22;5056606;28;20053;-67
2020/12/08 11:14:29;;;;;;;16.48;7.78;;;;;;;4.27;73.22;100025.81;5049070;28;20056;-67
2020/12/08 11:16:55;;;;;;;10.90;6.93;;;;;;;4.32;72.76;100013.78;5049896;28;20465;-68
2020/12/08 11:19:21;;;;;;;11.50;6.88;;;;;;;4.31;72.02;100014.66;5045771;28;20475;-67
2020/12/08 11:21:47;;;;;;;10.73;6.72;;;;;;;4.31;72.18;100017.22;5051844;28;20148;-67
2020/12/08 11:24:14;;;;;;;11.65;6.97;;;;;;;4.42;71.43;100016.31;5044651;28;20129;-67